Chiniot Weather



Chiniot's Current Weather

Temprature 15.39o clear sky

clear sky

Rain: 0 %

Min Temprature15.39o
Max Temprature15.39o
Humidity31
Wind Speed6.23 m/h
Sun Rise07:05:54
Sun Set17:33:34
Current Time: 23-Jan-2021 18:08:37
Lat/Lon: 31.72, 72.9789




Chiniot's Geo Location



Chiniot's Weather Forecast

Time Overall Temp Min Temp Max Temp Humidity Wind Speed Rain
23-Jan-2021 (Sat)
20:00:00 clear sky 15.280 12.190 15.280 36 4.39 m/h 0 %
23:00:00 clear sky 11.600 9.780 11.600 40 3.63 m/h 0 %
24-Jan-2021 (Sun)
02:00:00 clear sky 10.140 9.590 10.140 60 2.93 m/h 0 %
05:00:00 clear sky 8.780 8.700 8.780 40 3.64 m/h 0 %
08:00:00 clear sky 9.220 9.220 9.220 39 3.28 m/h 0 %
11:00:00 clear sky 17.810 17.810 17.810 29 3.09 m/h 0 %
14:00:00 clear sky 21.330 21.330 21.330 29 3.44 m/h 0 %
17:00:00 clear sky 18.830 18.830 18.830 32 2.6 m/h 0 %
20:00:00 clear sky 12.830 12.830 12.830 40 3.34 m/h 0 %
23:00:00 clear sky 11.260 11.260 11.260 40 2.76 m/h 0 %
25-Jan-2021 (Mon)
02:00:00 clear sky 9.730 9.730 9.730 42 2.35 m/h 0 %
05:00:00 clear sky 9.230 9.230 9.230 41 1.95 m/h 0 %
08:00:00 clear sky 9.640 9.640 9.640 40 1.92 m/h 0 %
11:00:00 clear sky 18.040 18.040 18.040 25 1.39 m/h 0 %
14:00:00 clear sky 21.900 21.900 21.900 22 1.62 m/h 0 %
17:00:00 clear sky 18.600 18.600 18.600 28 0.93 m/h 0 %
20:00:00 clear sky 13.690 13.690 13.690 38 0.57 m/h 0 %
23:00:00 clear sky 11.690 11.690 11.690 44 1.41 m/h 0 %
26-Jan-2021 (Tue)
02:00:00 clear sky 11.010 11.010 11.010 46 1.36 m/h 0 %
05:00:00 clear sky 9.550 9.550 9.550 49 0.88 m/h 0 %
08:00:00 clear sky 11.140 11.140 11.140 44 0.27 m/h 0 %
11:00:00 clear sky 19.830 19.830 19.830 25 1.16 m/h 0 %
14:00:00 clear sky 22.180 22.180 22.180 21 2.13 m/h 0 %
17:00:00 clear sky 19.110 19.110 19.110 25 1.46 m/h 0 %
20:00:00 clear sky 12.810 12.810 12.810 37 1.92 m/h 0 %
23:00:00 clear sky 10.420 10.420 10.420 42 0.51 m/h 0 %
27-Jan-2021 (Wed)
02:00:00 clear sky 9.840 9.840 9.840 43 1.35 m/h 0 %
05:00:00 clear sky 8.550 8.550 8.550 46 1.46 m/h 0 %
08:00:00 clear sky 9.880 9.880 9.880 42 1.3 m/h 0 %
11:00:00 clear sky 19.130 19.130 19.130 24 2.52 m/h 0 %
14:00:00 clear sky 22.410 22.410 22.410 20 2.66 m/h 0 %
17:00:00 clear sky 19.390 19.390 19.390 24 3.51 m/h 0 %
20:00:00 clear sky 12.980 12.980 12.980 35 2.7 m/h 0 %
23:00:00 clear sky 10.550 10.550 10.550 41 1.07 m/h 0 %
28-Jan-2021 (Thu)
02:00:00 clear sky 9.300 9.300 9.300 45 1.36 m/h 0 %
05:00:00 clear sky 8.180 8.180 8.180 48 1.17 m/h 0 %
08:00:00 clear sky 10.070 10.070 10.070 42 1.27 m/h 0 %
11:00:00 clear sky 19.880 19.880 19.880 22 2.61 m/h 0 %
14:00:00 clear sky 23.020 23.020 23.020 18 3.48 m/h 0 %
17:00:00 clear sky 19.560 19.560 19.560 22 2.62 m/h 0 %


Chiniot's Tourist Spots

Historical Places in Chiniot

Famous Cities (60)